createdAt,value
2017-10-15T00:01:49.605Z,14.60
2017-10-15T00:04:15.561Z,14.70
2017-10-15T00:06:42.269Z,14.70
2017-10-15T00:09:09.008Z,14.60
2017-10-15T00:11:34.939Z,14.70
2017-10-15T00:14:00.872Z,14.60
2017-10-15T00:16:27.549Z,14.40
2017-10-15T00:18:53.523Z,14.40
2017-10-15T00:21:19.589Z,14.40
2017-10-15T00:23:45.570Z,14.50
2017-10-15T00:26:11.492Z,14.50
2017-10-15T00:28:37.459Z,14.50
2017-10-15T00:31:03.403Z,14.60
2017-10-15T00:33:29.333Z,14.60
2017-10-15T00:35:55.356Z,14.60
2017-10-15T00:38:22.096Z,14.60
2017-10-15T00:40:48.087Z,14.50
2017-10-15T00:43:14.012Z,14.50
2017-10-15T00:45:40.006Z,14.40
2017-10-15T00:48:05.927Z,14.40
2017-10-15T00:50:31.878Z,14.40
2017-10-15T00:52:57.800Z,14.30
2017-10-15T00:55:23.825Z,14.30
2017-10-15T00:57:50.207Z,14.20
2017-10-15T01:00:16.155Z,14.20
2017-10-15T01:02:42.140Z,14.20
2017-10-15T01:05:08.129Z,14.20
2017-10-15T01:07:34.123Z,14.20
2017-10-15T01:10:00.052Z,14.20
2017-10-15T01:12:26.023Z,14.10
2017-10-15T01:14:51.963Z,14.10
2017-10-15T01:17:18.644Z,14.00
2017-10-15T01:19:44.834Z,13.90
2017-10-15T01:22:10.801Z,13.90
2017-10-15T01:24:36.752Z,13.90
2017-10-15T01:27:02.731Z,13.90
2017-10-15T01:29:28.803Z,13.90
2017-10-15T01:31:55.570Z,13.80
2017-10-15T01:34:21.503Z,13.70
2017-10-15T01:36:47.485Z,13.80
2017-10-15T01:39:13.399Z,13.80
2017-10-15T01:41:39.367Z,13.90
2017-10-15T01:44:05.535Z,13.90
2017-10-15T01:46:31.521Z,13.90
2017-10-15T01:48:57.451Z,13.80
2017-10-15T01:51:23.451Z,13.80
2017-10-15T01:53:51.846Z,13.80
2017-10-15T01:56:18.529Z,13.80
2017-10-15T01:58:44.493Z,13.70
2017-10-15T02:01:10.967Z,13.60
2017-10-15T02:03:36.956Z,13.60
2017-10-15T02:06:04.604Z,13.70
2017-10-15T02:08:30.543Z,13.70
2017-10-15T02:10:57.291Z,13.70
2017-10-15T02:13:23.261Z,13.70
2017-10-15T02:15:49.261Z,13.70
2017-10-15T02:18:15.224Z,13.70
2017-10-15T02:20:41.147Z,13.70
2017-10-15T02:23:07.131Z,13.60
2017-10-15T02:25:33.059Z,13.70
2017-10-15T02:27:59.745Z,13.60
2017-10-15T02:30:25.732Z,13.60
2017-10-15T02:32:51.672Z,13.70
2017-10-15T02:35:17.662Z,13.70
2017-10-15T02:37:44.351Z,13.60
2017-10-15T02:40:10.581Z,13.60
2017-10-15T02:42:36.596Z,13.60
2017-10-15T02:45:02.617Z,13.60
2017-10-15T02:47:28.539Z,13.60
2017-10-15T02:49:54.569Z,13.50
2017-10-15T02:52:21.033Z,13.40
2017-10-15T02:54:47.112Z,13.50
2017-10-15T02:57:13.695Z,13.50
2017-10-15T02:59:39.638Z,13.50
2017-10-15T03:02:05.653Z,13.40
2017-10-15T03:04:31.556Z,13.40
2017-10-15T03:06:57.515Z,13.30
2017-10-15T03:09:23.501Z,13.30
2017-10-15T03:11:49.427Z,13.30
2017-10-15T03:14:15.339Z,13.10
2017-10-15T03:16:42.145Z,13.10
2017-10-15T03:19:08.118Z,12.90
2017-10-15T03:21:34.133Z,13.10
2017-10-15T03:24:00.083Z,13.10
2017-10-15T03:26:26.034Z,13.30
2017-10-15T03:28:53.815Z,13.20
2017-10-15T03:31:19.752Z,13.20
2017-10-15T03:33:45.685Z,13.20
2017-10-15T03:36:12.279Z,13.20
2017-10-15T03:38:38.180Z,13.20
2017-10-15T03:41:04.197Z,13.20
2017-10-15T03:43:30.833Z,13.20
2017-10-15T03:45:56.796Z,13.10
2017-10-15T03:48:22.754Z,13.00
2017-10-15T03:50:48.778Z,13.00
2017-10-15T03:53:15.539Z,13.00
2017-10-15T03:55:42.442Z,13.10
2017-10-15T03:58:08.559Z,13.10
2017-10-15T04:00:34.516Z,13.10
2017-10-15T04:03:00.543Z,13.00
2017-10-15T04:05:27.151Z,13.00
2017-10-15T04:07:53.103Z,13.10
2017-10-15T04:10:19.404Z,13.10
2017-10-15T04:12:45.335Z,13.00
2017-10-15T04:15:11.337Z,13.00
2017-10-15T04:17:37.328Z,13.00
2017-10-15T04:20:04.057Z,13.00
2017-10-15T04:22:30.027Z,12.90
2017-10-15T04:24:55.975Z,12.90
2017-10-15T04:27:22.035Z,12.80
2017-10-15T04:29:47.997Z,12.80
2017-10-15T04:32:13.971Z,12.80
2017-10-15T04:34:39.995Z,12.80
2017-10-15T04:37:05.958Z,12.70
2017-10-15T04:39:32.694Z,12.70
2017-10-15T04:41:58.744Z,12.60
2017-10-15T04:44:25.663Z,12.70
2017-10-15T04:46:51.701Z,12.70
2017-10-15T04:49:17.715Z,12.70
2017-10-15T04:51:43.685Z,12.70
2017-10-15T04:54:10.149Z,12.70
2017-10-15T04:56:36.133Z,12.60
2017-10-15T04:59:02.086Z,12.70
2017-10-15T05:01:28.391Z,12.80
2017-10-15T05:03:55.212Z,12.80
2017-10-15T05:06:21.232Z,12.70
2017-10-15T05:08:47.177Z,12.70
2017-10-15T05:11:13.330Z,12.70
2017-10-15T05:13:39.253Z,12.70
2017-10-15T05:16:05.219Z,12.60
2017-10-15T05:18:31.248Z,12.50
2017-10-15T05:20:57.344Z,12.50
2017-10-15T05:23:23.499Z,12.40
2017-10-15T05:25:49.477Z,12.30
2017-10-15T05:28:16.325Z,12.20
2017-10-15T05:30:42.279Z,12.20
2017-10-15T05:33:08.263Z,12.10
2017-10-15T05:35:34.810Z,12.10
2017-10-15T05:38:02.520Z,12.10
2017-10-15T05:40:28.524Z,12.00
2017-10-15T05:42:54.484Z,12.10
2017-10-15T05:45:20.625Z,12.10
2017-10-15T05:47:47.647Z,12.20
2017-10-15T05:50:14.219Z,12.10
2017-10-15T05:52:41.258Z,12.10
2017-10-15T05:55:07.286Z,12.00
2017-10-15T05:57:34.803Z,12.00
2017-10-15T06:00:00.755Z,12.00
2017-10-15T06:02:28.351Z,12.00
2017-10-15T06:04:54.477Z,11.90
2017-10-15T06:07:20.432Z,11.90
2017-10-15T06:09:46.419Z,11.90
2017-10-15T06:12:12.396Z,11.90
2017-10-15T06:14:38.630Z,11.90
2017-10-15T06:17:04.660Z,11.90
2017-10-15T06:19:30.782Z,11.90
2017-10-15T06:21:57.720Z,12.00
2017-10-15T06:24:23.734Z,12.00
2017-10-15T06:26:49.747Z,12.00
2017-10-15T06:29:15.708Z,12.00
2017-10-15T06:31:41.735Z,12.10
2017-10-15T06:34:07.827Z,12.10
2017-10-15T06:36:33.869Z,12.20
2017-10-15T06:38:59.887Z,12.40
2017-10-15T06:41:25.894Z,12.40
2017-10-15T06:43:52.620Z,12.40
2017-10-15T06:46:18.659Z,12.30
2017-10-15T06:48:44.918Z,12.50
2017-10-15T06:51:11.131Z,12.50
2017-10-15T06:53:37.914Z,12.40
2017-10-15T06:56:04.974Z,12.40
2017-10-15T06:58:32.373Z,12.30
2017-10-15T07:00:58.931Z,12.30
2017-10-15T07:03:27.343Z,12.30
2017-10-15T07:05:53.270Z,12.20
2017-10-15T07:08:19.225Z,12.00
2017-10-15T07:10:47.051Z,12.30
2017-10-15T07:13:13.990Z,12.20
2017-10-15T07:15:39.981Z,12.20
2017-10-15T07:18:06.127Z,12.30
2017-10-15T07:20:33.056Z,12.50
2017-10-15T07:22:59.059Z,12.40
2017-10-15T07:25:25.730Z,12.40
2017-10-15T07:27:51.708Z,12.50
2017-10-15T07:30:18.483Z,12.70
2017-10-15T07:32:44.712Z,12.60
2017-10-15T07:35:11.454Z,12.70
2017-10-15T07:37:37.450Z,12.70
2017-10-15T07:40:03.447Z,12.70
2017-10-15T07:42:29.534Z,12.70
2017-10-15T07:44:56.035Z,12.80
2017-10-15T07:47:22.079Z,12.80
2017-10-15T07:49:48.072Z,12.80
2017-10-15T07:52:15.003Z,12.80
2017-10-15T07:54:41.016Z,12.90
2017-10-15T07:57:07.976Z,13.10
2017-10-15T07:59:34.867Z,13.20
2017-10-15T08:02:01.915Z,13.10
2017-10-15T08:04:29.730Z,13.20
2017-10-15T08:06:55.744Z,13.30
2017-10-15T08:09:21.697Z,13.30
2017-10-15T08:11:47.695Z,13.40
2017-10-15T08:14:13.991Z,13.50
2017-10-15T08:16:40.822Z,13.50
2017-10-15T08:19:07.007Z,13.40
2017-10-15T08:21:33.690Z,13.30
2017-10-15T08:23:59.760Z,13.20
2017-10-15T08:26:26.804Z,13.30
2017-10-15T08:28:54.935Z,13.40
2017-10-15T08:31:20.951Z,13.50
2017-10-15T08:33:47.755Z,13.50
2017-10-15T08:36:14.491Z,13.50
2017-10-15T08:38:40.565Z,13.50
2017-10-15T08:41:07.881Z,13.50
2017-10-15T08:43:34.067Z,13.70
2017-10-15T08:46:00.356Z,13.60
2017-10-15T08:48:27.386Z,13.60
2017-10-15T08:50:53.351Z,13.80
2017-10-15T08:53:19.367Z,13.80
2017-10-15T08:55:45.650Z,13.80
2017-10-15T08:58:11.906Z,13.70
2017-10-15T09:00:38.005Z,13.80
2017-10-15T09:03:04.143Z,14.00
2017-10-15T09:05:30.891Z,14.10
2017-10-15T09:07:56.846Z,14.10
2017-10-15T09:10:22.801Z,14.30
2017-10-15T09:12:48.843Z,14.50
2017-10-15T09:15:14.856Z,14.70
2017-10-15T09:17:40.790Z,14.90
2017-10-15T09:20:08.783Z,14.80
2017-10-15T09:22:34.807Z,14.70
2017-10-15T09:25:00.950Z,14.50
2017-10-15T09:27:33.908Z,14.40
2017-10-15T09:30:00.722Z,14.40
2017-10-15T09:32:27.700Z,14.60
2017-10-15T09:34:53.881Z,14.70
2017-10-15T09:37:20.761Z,14.90
2017-10-15T09:39:48.108Z,14.90
2017-10-15T09:42:16.781Z,15.10
2017-10-15T09:44:44.005Z,15.20
2017-10-15T09:47:09.956Z,15.10
2017-10-15T09:49:40.597Z,15.00
2017-10-15T09:52:06.600Z,14.80
2017-10-15T09:54:32.564Z,14.70
2017-10-15T09:56:58.572Z,14.70
2017-10-15T09:59:24.522Z,14.60
2017-10-15T10:01:50.513Z,14.50
2017-10-15T10:04:16.474Z,14.50
2017-10-15T10:06:42.596Z,14.70
2017-10-15T10:09:08.610Z,14.70
2017-10-15T10:11:34.587Z,14.80
2017-10-15T10:14:00.527Z,15.00
2017-10-15T10:16:27.374Z,15.20
2017-10-15T10:18:53.326Z,15.10
2017-10-15T10:21:19.344Z,15.10
2017-10-15T10:23:45.315Z,15.30
2017-10-15T10:26:12.084Z,15.30
2017-10-15T10:28:38.661Z,15.20
2017-10-15T10:31:04.594Z,15.10
2017-10-15T10:33:30.665Z,15.10
2017-10-15T10:35:56.688Z,15.20
2017-10-15T10:38:22.627Z,15.20
2017-10-15T10:40:48.632Z,15.10
2017-10-15T10:43:14.620Z,15.10
2017-10-15T10:45:40.584Z,14.90
2017-10-15T10:48:07.240Z,15.00
2017-10-15T10:50:33.395Z,15.20
2017-10-15T10:52:59.369Z,15.70
2017-10-15T10:55:26.587Z,16.10
2017-10-15T10:57:54.140Z,16.30
2017-10-15T11:00:20.335Z,16.50
2017-10-15T11:02:46.384Z,16.70
2017-10-15T11:05:12.455Z,16.70
2017-10-15T11:07:38.445Z,16.80
2017-10-15T11:10:04.776Z,16.80
2017-10-15T11:12:32.280Z,16.50
2017-10-15T11:14:59.068Z,16.80
2017-10-15T11:17:25.082Z,16.70
2017-10-15T11:19:51.919Z,17.00
2017-10-15T11:22:18.753Z,16.90
2017-10-15T11:24:45.822Z,17.10
2017-10-15T11:27:12.103Z,17.30
2017-10-15T11:29:38.822Z,17.40
2017-10-15T11:32:04.897Z,17.60
2017-10-15T11:34:30.876Z,17.80
2017-10-15T11:36:57.661Z,17.90
2017-10-15T11:39:24.580Z,17.80
2017-10-15T11:41:50.537Z,18.20
2017-10-15T11:44:17.299Z,18.20
2017-10-15T11:46:43.541Z,18.10
2017-10-15T11:49:10.324Z,18.40
2017-10-15T11:51:36.378Z,18.40
2017-10-15T11:54:02.352Z,18.50
2017-10-15T11:56:30.012Z,18.70
2017-10-15T11:58:56.089Z,18.70
2017-10-15T12:01:22.046Z,19.00
2017-10-15T12:03:49.180Z,19.30
2017-10-15T12:06:16.094Z,19.30
2017-10-15T12:08:42.094Z,19.40
2017-10-15T12:11:08.482Z,19.40
2017-10-15T12:13:34.435Z,19.10
2017-10-15T12:16:00.413Z,19.10
2017-10-15T12:18:26.384Z,19.00
2017-10-15T12:20:52.343Z,19.00
2017-10-15T12:23:18.476Z,18.80
2017-10-15T12:25:44.465Z,19.10
2017-10-15T12:28:10.416Z,19.30
2017-10-15T12:30:36.395Z,19.60
2017-10-15T12:33:02.574Z,19.80
2017-10-15T12:35:28.559Z,19.60
2017-10-15T12:37:54.619Z,19.10
2017-10-15T12:40:20.543Z,19.20
2017-10-15T12:42:46.534Z,19.10
2017-10-15T12:45:13.521Z,18.70
2017-10-15T12:47:39.513Z,18.80
2017-10-15T12:50:06.244Z,19.10
2017-10-15T12:52:32.245Z,19.20
2017-10-15T12:54:58.188Z,19.40
2017-10-15T12:57:25.035Z,19.40
2017-10-15T12:59:51.189Z,19.30
2017-10-15T13:02:17.900Z,19.70
2017-10-15T13:04:44.219Z,19.80
2017-10-15T13:07:10.170Z,20.00
2017-10-15T13:09:36.894Z,19.90
2017-10-15T13:12:04.559Z,19.80
2017-10-15T13:14:30.592Z,20.10
2017-10-15T13:16:58.219Z,20.30
2017-10-15T13:19:25.186Z,20.60
2017-10-15T13:21:54.513Z,20.90
2017-10-15T13:24:21.223Z,20.90
2017-10-15T13:26:48.663Z,20.80
2017-10-15T13:29:17.270Z,20.90
2017-10-15T13:31:43.673Z,20.60
2017-10-15T13:34:11.138Z,20.80
2017-10-15T13:36:39.571Z,20.70
2017-10-15T13:39:06.589Z,21.40
2017-10-15T13:41:35.781Z,21.40
2017-10-15T13:44:02.822Z,21.70
2017-10-15T13:46:29.156Z,21.70
2017-10-15T13:48:56.818Z,21.70
2017-10-15T13:51:23.755Z,21.80
2017-10-15T13:53:50.849Z,21.80
2017-10-15T13:56:18.720Z,21.90
2017-10-15T13:58:44.916Z,22.00
2017-10-15T14:01:11.957Z,21.90
2017-10-15T14:03:38.816Z,21.90
2017-10-15T14:06:05.486Z,21.70
2017-10-15T14:08:32.975Z,21.60
2017-10-15T14:11:00.293Z,21.80
2017-10-15T14:13:27.195Z,21.70
2017-10-15T14:15:53.238Z,21.60
2017-10-15T14:18:23.189Z,21.80
2017-10-15T14:20:49.851Z,22.10
2017-10-15T14:23:15.903Z,22.20
2017-10-15T14:25:42.633Z,22.50
2017-10-15T14:28:08.670Z,22.50
2017-10-15T14:30:34.698Z,22.70
2017-10-15T14:33:00.651Z,22.50
2017-10-15T14:35:26.633Z,22.60
2017-10-15T14:37:53.507Z,22.40
2017-10-15T14:40:19.536Z,22.40
2017-10-15T14:42:45.544Z,22.30
2017-10-15T14:45:12.543Z,22.60
2017-10-15T14:47:38.523Z,22.90
2017-10-15T14:52:37.873Z,23.20
2017-10-15T14:55:06.379Z,23.10
2017-10-15T15:05:08.134Z,22.70
2017-10-15T15:12:37.211Z,22.50
2017-10-15T15:15:04.091Z,22.60
2017-10-15T15:20:02.574Z,23.00
2017-10-15T15:25:01.756Z,22.50
2017-10-15T15:37:36.709Z,21.70
2017-10-15T15:42:35.916Z,21.70
2017-10-15T15:45:08.818Z,21.60
2017-10-15T15:47:36.480Z,21.80
2017-10-15T15:52:38.826Z,21.60
2017-10-15T16:02:46.211Z,23.00
2017-10-15T16:07:45.101Z,22.70
2017-10-15T16:10:12.766Z,22.10
2017-10-15T16:15:09.515Z,21.40
2017-10-15T16:17:36.695Z,21.50
2017-10-15T16:20:06.989Z,21.50
2017-10-15T16:27:39.704Z,20.30
2017-10-15T16:35:15.630Z,19.50
2017-10-15T16:40:21.358Z,19.10
2017-10-15T16:47:56.447Z,18.50
2017-10-15T16:52:55.932Z,18.10
2017-10-15T16:55:28.428Z,18.00
2017-10-15T16:57:57.922Z,18.00
2017-10-15T17:00:25.999Z,17.90
2017-10-15T17:02:53.153Z,17.80
2017-10-15T17:05:19.482Z,17.70
2017-10-15T17:10:16.322Z,17.60
2017-10-15T17:12:42.450Z,17.60
2017-10-15T17:15:09.098Z,17.60
2017-10-15T17:17:35.618Z,17.60
2017-10-15T17:20:04.235Z,17.50
2017-10-15T17:22:32.040Z,17.50
2017-10-15T17:24:58.037Z,17.50
2017-10-15T17:27:24.009Z,17.50
2017-10-15T17:29:49.981Z,17.50
2017-10-15T17:32:16.688Z,17.50
2017-10-15T17:34:43.676Z,17.50
2017-10-15T17:37:09.666Z,17.40
2017-10-15T17:39:36.277Z,17.40
2017-10-15T17:42:03.080Z,17.30
2017-10-15T17:44:29.038Z,17.30
2017-10-15T17:46:55.782Z,17.20
2017-10-15T17:49:22.727Z,17.20
2017-10-15T17:51:48.672Z,17.20
2017-10-15T17:54:14.705Z,17.10
2017-10-15T17:56:43.481Z,17.10
2017-10-15T17:59:09.508Z,17.00
2017-10-15T18:01:37.159Z,16.90
2017-10-15T18:04:07.065Z,16.90
2017-10-15T18:06:34.137Z,16.90
2017-10-15T18:09:00.913Z,16.70
2017-10-15T18:11:30.113Z,16.70
2017-10-15T18:13:56.513Z,16.70
2017-10-15T18:16:23.123Z,16.80
2017-10-15T18:21:21.158Z,16.60
2017-10-15T18:23:47.814Z,16.60
2017-10-15T18:26:16.307Z,16.60
2017-10-15T18:28:44.374Z,16.50
2017-10-15T18:31:11.245Z,16.50
2017-10-15T18:33:39.256Z,16.40
2017-10-15T18:36:05.464Z,16.30
2017-10-15T18:38:33.800Z,16.40
2017-10-15T18:41:02.584Z,16.20
2017-10-15T18:43:31.729Z,16.20
2017-10-15T18:48:30.067Z,16.10
2017-10-15T18:50:57.743Z,16.10
2017-10-15T18:53:24.404Z,16.10
2017-10-15T18:58:23.464Z,16.10
2017-10-15T19:00:49.411Z,16.00
2017-10-15T19:03:16.313Z,15.90
2017-10-15T19:05:43.267Z,15.90
2017-10-15T19:13:11.579Z,15.80
2017-10-15T19:15:39.281Z,15.70
2017-10-15T19:23:08.841Z,15.60
2017-10-15T19:25:36.146Z,15.60
2017-10-15T19:28:05.729Z,15.40
2017-10-15T19:30:34.263Z,15.50
2017-10-15T19:33:01.187Z,15.40
2017-10-15T19:38:00.801Z,15.40
2017-10-15T19:40:27.996Z,15.30
2017-10-15T19:45:27.086Z,15.30
2017-10-15T19:47:53.913Z,15.30
2017-10-15T19:50:21.343Z,15.30
2017-10-15T19:52:47.506Z,15.20
2017-10-15T19:55:15.230Z,15.20
2017-10-15T19:57:42.306Z,15.10
2017-10-15T20:00:08.636Z,15.10
2017-10-15T20:02:37.534Z,15.00
2017-10-15T20:07:35.339Z,15.00
2017-10-15T20:10:03.275Z,15.00
2017-10-15T20:17:33.906Z,14.80
2017-10-15T20:22:30.914Z,14.80
2017-10-15T20:24:56.933Z,14.80
2017-10-15T20:27:22.931Z,14.80
2017-10-15T20:29:49.444Z,14.70
2017-10-15T20:32:15.467Z,14.70
2017-10-15T20:34:41.623Z,14.60
2017-10-15T20:37:07.660Z,14.60
2017-10-15T20:39:33.976Z,14.60
2017-10-15T20:42:00.003Z,14.50
2017-10-15T20:44:26.041Z,14.50
2017-10-15T20:46:52.201Z,14.50
2017-10-15T20:49:21.667Z,14.40
2017-10-15T20:51:47.876Z,14.30
2017-10-15T20:54:13.962Z,14.40
2017-10-15T20:56:40.929Z,14.40
2017-10-15T20:59:06.923Z,14.30
2017-10-15T21:01:34.560Z,14.30
2017-10-15T21:04:00.665Z,14.20
2017-10-15T21:06:27.349Z,14.20
2017-10-15T21:08:53.331Z,14.20
2017-10-15T21:11:19.499Z,14.20
2017-10-15T21:13:45.460Z,14.10
2017-10-15T21:16:11.709Z,14.20
2017-10-15T21:18:39.539Z,14.10
2017-10-15T21:21:05.491Z,14.10
2017-10-15T21:23:31.461Z,14.10
2017-10-15T21:25:59.665Z,14.10
2017-10-15T21:28:25.611Z,14.10
2017-10-15T21:30:53.404Z,14.00
2017-10-15T21:33:19.345Z,14.00
2017-10-15T21:35:45.345Z,14.00
2017-10-15T21:38:11.342Z,14.00
2017-10-15T21:40:37.367Z,14.00
2017-10-15T21:43:04.253Z,14.00
2017-10-15T21:45:30.240Z,14.00
2017-10-15T21:47:56.181Z,13.90
2017-10-15T21:50:22.279Z,14.00
2017-10-15T21:52:48.958Z,13.90
2017-10-15T21:55:14.968Z,13.80
2017-10-15T21:57:40.897Z,13.80
2017-10-15T22:00:07.609Z,13.80
2017-10-15T22:02:33.629Z,13.70
2017-10-15T22:04:59.596Z,13.80
2017-10-15T22:07:25.513Z,13.80
2017-10-15T22:09:52.228Z,13.80
2017-10-15T22:12:18.258Z,13.70
2017-10-15T22:14:44.212Z,13.70
2017-10-15T22:17:10.571Z,13.60
2017-10-15T22:19:36.566Z,13.70
2017-10-15T22:22:08.714Z,13.70
2017-10-15T22:24:34.644Z,13.70
2017-10-15T22:27:00.653Z,13.70
2017-10-15T22:29:26.589Z,13.70
2017-10-15T22:31:52.594Z,13.70
2017-10-15T22:34:18.583Z,13.70
2017-10-15T22:36:44.560Z,13.60
2017-10-15T22:39:10.553Z,13.60
2017-10-15T22:41:36.498Z,13.60
2017-10-15T22:44:03.462Z,13.50
2017-10-15T22:46:29.459Z,13.50
2017-10-15T22:48:55.402Z,13.50
2017-10-15T22:51:22.392Z,13.40
2017-10-15T22:53:48.349Z,13.40
2017-10-15T22:56:14.292Z,13.40
2017-10-15T22:58:40.865Z,13.30
2017-10-15T23:01:06.821Z,13.30
2017-10-15T23:03:32.769Z,13.30
2017-10-15T23:05:58.717Z,13.40
2017-10-15T23:08:25.386Z,13.30
2017-10-15T23:10:51.334Z,13.30
2017-10-15T23:13:17.339Z,13.30
2017-10-15T23:15:43.272Z,13.30
2017-10-15T23:18:09.292Z,13.30
2017-10-15T23:20:35.707Z,13.30
2017-10-15T23:23:04.414Z,13.30
2017-10-15T23:25:30.376Z,13.30
2017-10-15T23:27:57.073Z,13.20
2017-10-15T23:30:23.011Z,13.10
2017-10-15T23:32:49.015Z,13.20
2017-10-15T23:35:15.256Z,13.20
2017-10-15T23:37:41.250Z,13.20
2017-10-15T23:40:07.199Z,13.20
2017-10-15T23:42:33.191Z,13.00
2017-10-15T23:44:59.142Z,13.10
2017-10-15T23:47:25.055Z,13.10
2017-10-15T23:49:51.084Z,13.10
2017-10-15T23:52:17.063Z,13.20
2017-10-15T23:54:43.048Z,13.30
2017-10-15T23:57:09.124Z,13.30
2017-10-15T23:59:35.875Z,13.30
